Time;durP1;ratioP1;P1;durP2;ratioP2;P2;SDS_P1;SDS_P2;PMS_P1;PMS_P2;Temp;Humidity;BMP_temperature;BMP_pressure;BME280_temperature;BME280_humidity;BME280_pressure;Samples;Min_cycle;Max_cycle;Signal;HPM_P1;HPM_P2
2022/02/09 00:00:45;;;;;;;;;123.50;122.50;;;;;;;;5073848;28;8827;-79
2022/02/09 00:03:20;;;;;;;;;114.60;111.40;;;;;;;;5073908;28;8811;-80
2022/02/09 00:08:11;;;;;;;;;129.00;128.40;;;;;;;;5073640;28;8816;-80
2022/02/09 00:10:40;;;;;;;;;130.40;128.60;;;;;;;;5070415;28;8760;-80
2022/02/09 00:15:59;;;;;;;;;106.20;102.20;;;;;;;;5073255;28;8768;-80
2022/02/09 00:21:09;;;;;;;;;115.25;111.00;;;;;;;;5073499;28;10434;-81
2022/02/09 00:29:08;;;;;;;;;109.33;106.67;;;;;;;;5073478;28;8886;-81
2022/02/09 00:34:28;;;;;;;;;115.50;111.83;;;;;;;;5073483;28;8781;-81
2022/02/09 01:57:35;;;;;;;;;100.50;92.50;;;;;;;;5075400;28;8789;-81
2022/02/09 02:00:01;;;;;;;;;94.60;86.00;;;;;;;;5075507;28;12445;-81
2022/02/09 02:02:28;;;;;;;;;110.20;107.60;;;;;;;;5075294;28;8796;-81
2022/02/09 02:04:53;;;;;;;;;101.80;94.40;;;;;;;;5075558;28;9711;-80
2022/02/09 02:10:07;;;;;;;;;98.20;90.40;;;;;;;;5075217;28;8781;-81
2022/02/09 02:12:48;;;;;;;;;104.00;99.40;;;;;;;;5062123;28;8796;-80
2022/02/09 02:15:50;;;;;;;;;101.60;96.00;;;;;;;;5073704;28;8886;-81
2022/02/09 02:18:04;;;;;;;;;106.00;104.60;;;;;;;;5074696;28;8842;-81
2022/02/09 02:20:45;;;;;;;;;102.25;97.50;;;;;;;;5073794;28;8820;-81
2022/02/09 03:09:44;;;;;;;;;101.00;93.60;;;;;;;;5073639;28;11073;-76
2022/02/09 03:14:30;;;;;;;;;97.25;87.00;;;;;;;;5061933;28;8765;-76
2022/02/09 03:17:01;;;;;;;;;97.75;88.50;;;;;;;;5073860;28;8896;-76
2022/02/09 03:27:32;;;;;;;;;100.50;94.00;;;;;;;;5061561;28;8788;-76
2022/02/09 03:44:22;;;;;;;;;96.20;85.80;;;;;;;;5073995;28;11585;-76
2022/02/09 03:47:15;;;;;;;;;106.80;104.00;;;;;;;;5062869;28;9750;-77
2022/02/09 03:50:22;;;;;;;;;99.00;88.20;;;;;;;;5073824;28;8894;-77
2022/02/09 03:55:48;;;;;;;;;107.60;105.80;;;;;;;;5073762;28;11574;-76
2022/02/09 03:58:11;;;;;;;;;108.00;105.40;;;;;;;;5070579;28;8814;-77
2022/02/09 04:00:40;;;;;;;;;102.25;95.00;;;;;;;;5073878;28;8907;-77
2022/02/09 04:03:09;;;;;;;;;96.20;85.00;;;;;;;;5073904;28;8781;-77
2022/02/09 04:05:35;;;;;;;;;105.20;102.60;;;;;;;;5073617;28;8820;-77
2022/02/09 04:08:01;;;;;;;;;99.75;92.00;;;;;;;;5074091;28;8868;-76
2022/02/09 04:10:35;;;;;;;;;95.60;85.80;;;;;;;;5071775;28;8846;-76
2022/02/09 04:15:44;;;;;;;;;107.00;99.50;;;;;;;;5073727;28;8825;-76
2022/02/09 04:41:18;;;;;;;;;95.25;83.25;;;;;;;;5065352;28;10971;-77
2022/02/09 04:48:34;;;;;;;;;82.25;67.50;;;;;;;;5064725;28;8792;-76
2022/02/09 04:51:18;;;;;;;;;97.75;86.00;;;;;;;;5076792;28;8753;-76
2022/02/09 04:56:41;;;;;;;;;94.20;80.20;;;;;;;;5064895;28;8784;-76
2022/02/09 04:59:24;;;;;;;;;94.25;80.25;;;;;;;;5076418;28;8796;-76
2022/02/09 05:02:15;;;;;;;;;97.60;87.40;;;;;;;;5074989;28;12453;-76
2022/02/09 05:25:51;;;;;;;;;101.00;93.25;;;;;;;;5076060;28;8811;-76
2022/02/09 05:28:19;;;;;;;;;98.60;89.20;;;;;;;;5076084;28;8918;-76
2022/02/09 05:30:46;;;;;;;;;104.80;95.80;;;;;;;;5076027;28;8797;-76
2022/02/09 05:33:11;;;;;;;;;103.25;95.75;;;;;;;;5075321;28;8891;-76
2022/02/09 05:35:37;;;;;;;;;101.00;88.00;;;;;;;;5074305;28;8796;-76
2022/02/09 05:38:03;;;;;;;;;105.00;101.00;;;;;;;;5075728;28;8816;-76
2022/02/09 05:40:29;;;;;;;;;105.40;99.80;;;;;;;;5075397;28;12515;-76
2022/02/09 05:42:55;;;;;;;;;103.20;94.60;;;;;;;;5075774;28;8831;-76
2022/02/09 05:45:23;;;;;;;;;107.20;98.20;;;;;;;;5072413;28;8857;-76
2022/02/09 05:50:46;;;;;;;;;106.40;101.40;;;;;;;;5075647;28;8915;-76
2022/02/09 05:53:16;;;;;;;;;101.20;92.60;;;;;;;;5070382;28;8776;-76
2022/02/09 05:58:21;;;;;;;;;102.40;94.80;;;;;;;;5075326;28;8805;-76
2022/02/09 06:00:47;;;;;;;;;112.20;106.00;;;;;;;;5075484;28;8916;-76
2022/02/09 06:03:13;;;;;;;;;103.60;96.80;;;;;;;;5075586;28;8717;-76
2022/02/09 06:05:38;;;;;;;;;110.60;106.60;;;;;;;;5075376;28;8835;-76
2022/02/09 06:08:04;;;;;;;;;106.20;102.80;;;;;;;;5075622;28;8800;-76
2022/02/09 06:10:32;;;;;;;;;102.75;93.25;;;;;;;;5073803;28;9202;-76
2022/02/09 06:15:59;;;;;;;;;109.80;106.20;;;;;;;;5075050;28;9619;-76
2022/02/09 06:21:03;;;;;;;;;110.20;107.20;;;;;;;;5075200;28;8804;-76
2022/02/09 06:23:29;;;;;;;;;146.33;144.00;;;;;;;;5075211;28;8823;-76
2022/02/09 06:25:55;;;;;;;;;108.80;105.80;;;;;;;;5074851;28;8796;-76
2022/02/09 06:28:20;;;;;;;;;117.75;113.50;;;;;;;;5075130;28;8840;-76
2022/02/09 06:30:46;;;;;;;;;111.80;110.40;;;;;;;;5073351;28;8808;-76
2022/02/09 06:33:12;;;;;;;;;108.25;106.75;;;;;;;;5074872;28;8804;-76
2022/02/09 06:35:37;;;;;;;;;110.60;108.20;;;;;;;;5072982;28;8814;-76
2022/02/09 06:38:03;;;;;;;;;111.75;109.50;;;;;;;;5074996;28;8824;-76
2022/02/09 06:40:29;;;;;;;;;111.75;108.25;;;;;;;;5074489;28;8895;-76
2022/02/09 06:42:54;;;;;;;;;109.40;107.40;;;;;;;;5074633;28;8800;-76
2022/02/09 06:45:23;;;;;;;;;127.75;125.50;;;;;;;;5072272;28;8849;-76
2022/02/09 06:47:49;;;;;;;;;112.80;107.80;;;;;;;;5074713;28;8748;-76
2022/02/09 06:50:39;;;;;;;;;124.20;119.20;;;;;;;;5074663;28;8801;-76
2022/02/09 06:55:49;;;;;;;;;119.20;115.80;;;;;;;;5074431;28;10918;-76
2022/02/09 06:58:31;;;;;;;;;126.00;126.00;;;;;;;;5074418;28;8843;-76
2022/02/09 07:00:56;;;;;;;;;112.60;108.60;;;;;;;;5072871;28;8842;-76
2022/02/09 07:03:22;;;;;;;;;101.33;94.00;;;;;;;;5072761;28;8828;-76
2022/02/09 07:05:47;;;;;;;;;132.00;130.00;;;;;;;;5069854;28;8882;-76
2022/02/09 07:08:13;;;;;;;;;106.33;100.67;;;;;;;;5070781;28;8914;-76
2022/02/09 07:10:38;;;;;;;;;114.50;110.00;;;;;;;;5066504;28;8889;-76
2022/02/09 07:13:03;;;;;;;;;131.00;129.00;;;;;;;;5074427;28;8820;-76
2022/02/09 07:15:33;;;;;;;;;119.00;114.75;;;;;;;;5072359;28;8921;-76
2022/02/09 07:18:05;;;;;;;;;113.75;108.50;;;;;;;;5072605;28;9302;-77
2022/02/09 07:20:41;;;;;;;;;119.00;117.40;;;;;;;;5074518;28;8777;-76
2022/02/09 07:23:06;;;;;;;;;110.20;107.40;;;;;;;;5068663;28;9700;-76
2022/02/09 07:25:33;;;;;;;;;109.20;106.00;;;;;;;;5072085;28;8923;-76
2022/02/09 07:28:03;;;;;;;;;110.00;104.80;;;;;;;;5074258;28;8788;-76
2022/02/09 07:30:29;;;;;;;;;115.80;111.40;;;;;;;;5063612;28;8870;-77
2022/02/09 07:32:55;;;;;;;;;134.00;130.60;;;;;;;;5063403;28;8889;-76
2022/02/09 07:35:22;;;;;;;;;124.40;122.60;;;;;;;;5074154;28;8805;-76
2022/02/09 07:37:47;;;;;;;;;113.00;109.75;;;;;;;;5074881;28;8804;-76
2022/02/09 07:40:14;;;;;;;;;118.60;116.60;;;;;;;;5075060;28;8832;-76
2022/02/09 07:42:45;;;;;;;;;135.50;132.00;;;;;;;;5072860;28;8959;-76
2022/02/09 07:47:46;;;;;;;;;115.40;112.60;;;;;;;;5061269;28;8799;-76
2022/02/09 07:50:37;;;;;;;;;139.00;137.25;;;;;;;;5061123;28;8800;-76
2022/02/09 07:55:34;;;;;;;;;111.60;107.80;;;;;;;;5072022;28;8796;-76
2022/02/09 07:58:00;;;;;;;;;126.40;123.80;;;;;;;;5075287;28;8842;-75
2022/02/09 08:00:25;;;;;;;;;126.25;123.00;;;;;;;;5077345;28;9678;-76
2022/02/09 08:02:52;;;;;;;;;115.00;112.80;;;;;;;;5077344;28;8805;-76
2022/02/09 08:05:18;;;;;;;;;125.00;122.60;;;;;;;;5077208;28;8816;-77
2022/02/09 08:07:43;;;;;;;;;122.33;120.67;;;;;;;;5073141;28;8917;-78
2022/02/09 08:10:16;;;;;;;;;120.00;117.33;;;;;;;;5070919;28;8905;-77
2022/02/09 08:31:23;;;;;;;;;120.60;119.20;;;;;;;;5077122;28;8745;-81
2022/02/09 08:33:47;;;;;;;;;107.00;103.40;;;;;;;;5076948;28;8848;-82
2022/02/09 08:36:13;;;;;;;;;104.67;100.67;;;;;;;;5076654;28;8877;-82
2022/02/09 08:38:42;;;;;;;;;112.40;110.40;;;;;;;;5076870;28;8874;-78
2022/02/09 08:41:08;;;;;;;;;98.25;89.75;;;;;;;;5076397;28;8880;-80
2022/02/09 08:43:33;;;;;;;;;103.20;93.00;;;;;;;;5076877;28;8800;-78
2022/02/09 08:45:58;;;;;;;;;105.25;99.75;;;;;;;;5061966;28;8855;-74
2022/02/09 08:48:24;;;;;;;;;122.75;120.00;;;;;;;;5076052;28;8917;-75
2022/02/09 08:50:50;;;;;;;;;98.50;87.25;;;;;;;;5076010;28;8824;-75
2022/02/09 08:53:17;;;;;;;;;106.40;99.60;;;;;;;;5071602;28;8892;-75
2022/02/09 08:55:42;;;;;;;;;106.75;104.25;;;;;;;;5075713;28;8819;-75
2022/02/09 08:58:08;;;;;;;;;103.00;94.00;;;;;;;;5075893;28;8844;-75
2022/02/09 09:00:37;;;;;;;;;109.00;102.33;;;;;;;;5075943;28;8862;-75
2022/02/09 09:05:53;;;;;;;;;96.60;84.60;;;;;;;;5068961;28;8808;-75
2022/02/09 09:19:28;;;;;;;;;106.20;103.60;;;;;;;;5074496;28;8821;-75
2022/02/09 10:00:19;;;;;;;;;102.80;99.00;;;;;;;;5066560;28;8804;-75
2022/02/09 10:02:54;;;;;;;;;122.50;119.25;;;;;;;;5074650;28;8835;-76
2022/02/09 10:33:50;;;;;;;;;98.60;92.80;;;;;;;;5069256;28;8792;-76
2022/02/09 10:36:19;;;;;;;;;84.25;67.25;;;;;;;;5074251;28;8815;-76
2022/02/09 10:38:49;;;;;;;;;91.50;79.00;;;;;;;;5074734;28;8827;-76
2022/02/09 10:41:24;;;;;;;;;89.40;78.80;;;;;;;;5073990;28;11646;-76
2022/02/09 10:44:01;;;;;;;;;96.00;85.80;;;;;;;;5068982;28;8832;-76
2022/02/09 10:46:26;;;;;;;;;92.00;80.20;;;;;;;;5072951;28;8832;-76
2022/02/09 10:48:55;;;;;;;;;93.67;85.33;;;;;;;;5072420;28;11704;-76
2022/02/09 10:51:27;;;;;;;;;97.20;94.20;;;;;;;;5071920;28;8792;-76
2022/02/09 10:54:07;;;;;;;;;99.75;94.25;;;;;;;;5074306;28;8843;-77
2022/02/09 10:56:33;;;;;;;;;96.50;90.00;;;;;;;;5072778;28;8800;-76
2022/02/09 10:59:00;;;;;;;;;102.80;94.40;;;;;;;;5072894;28;8913;-76
2022/02/09 11:01:26;;;;;;;;;136.20;136.00;;;;;;;;5074045;28;8873;-76
2022/02/09 11:03:54;;;;;;;;;93.00;84.67;;;;;;;;5074274;28;9509;-76
2022/02/09 11:06:20;;;;;;;;;109.00;109.00;;;;;;;;5074163;28;9277;-76
2022/02/09 11:08:45;;;;;;;;;96.75;89.75;;;;;;;;5071895;28;8815;-76
2022/02/09 11:11:12;;;;;;;;;83.00;67.25;;;;;;;;5066412;28;8842;-75
2022/02/09 11:13:37;;;;;;;;;86.25;74.50;;;;;;;;5072024;28;8857;-75
2022/02/09 11:16:03;;;;;;;;;111.00;105.25;;;;;;;;5073614;28;10558;-75
2022/02/09 11:18:29;;;;;;;;;77.00;60.75;;;;;;;;5073954;28;8817;-77
2022/02/09 11:20:59;;;;;;;;;96.80;90.80;;;;;;;;5074478;28;8800;-76
2022/02/09 11:23:37;;;;;;;;;89.80;79.20;;;;;;;;5074132;28;8842;-76
2022/02/09 11:26:10;;;;;;;;;98.80;96.20;;;;;;;;5073942;28;8769;-76
2022/02/09 11:28:41;;;;;;;;;79.00;63.50;;;;;;;;5072701;28;9761;-76
2022/02/09 11:31:21;;;;;;;;;86.25;70.25;;;;;;;;5073403;28;8888;-76
2022/02/09 11:34:00;;;;;;;;;97.00;91.60;;;;;;;;5069689;28;8788;-76
2022/02/09 11:36:33;;;;;;;;;95.50;89.25;;;;;;;;5073750;28;8785;-76
2022/02/09 11:39:21;;;;;;;;;85.00;67.50;;;;;;;;5074117;28;8854;-76
2022/02/09 11:44:49;;;;;;;;;84.00;69.75;;;;;;;;5072497;28;8749;-76
2022/02/09 11:47:52;;;;;;;;;84.75;67.50;;;;;;;;5074172;28;8737;-76
2022/02/09 11:54:35;;;;;;;;;86.25;72.50;;;;;;;;5073816;28;8785;-76
2022/02/09 12:09:25;;;;;;;;;103.75;100.50;;;;;;;;5058701;28;8792;-77
2022/02/09 12:11:51;;;;;;;;;103.40;102.40;;;;;;;;5070168;28;8814;-77
2022/02/09 12:14:35;;;;;;;;;88.60;80.60;;;;;;;;5073371;28;8828;-77
2022/02/09 12:19:51;;;;;;;;;96.20;94.40;;;;;;;;5073735;28;8824;-77
2022/02/09 12:22:18;;;;;;;;;85.50;73.00;;;;;;;;5070154;28;8789;-78
2022/02/09 12:24:44;;;;;;;;;89.20;81.40;;;;;;;;5073520;28;8869;-78
2022/02/09 12:27:12;;;;;;;;;85.50;74.50;;;;;;;;5070075;28;8816;-77
2022/02/09 12:29:45;;;;;;;;;103.20;101.80;;;;;;;;5073450;28;8866;-78
2022/02/09 12:32:17;;;;;;;;;95.00;92.40;;;;;;;;5067289;28;8783;-78
2022/02/09 12:34:44;;;;;;;;;111.00;108.80;;;;;;;;5072978;28;11096;-78
2022/02/09 12:37:13;;;;;;;;;82.50;69.00;;;;;;;;5071905;28;8816;-78
2022/02/09 12:39:46;;;;;;;;;89.67;80.33;;;;;;;;5072223;28;8820;-78
2022/02/09 12:42:13;;;;;;;;;84.00;72.40;;;;;;;;5075453;28;11510;-78
2022/02/09 12:44:38;;;;;;;;;88.50;80.50;;;;;;;;5076540;28;8792;-78
2022/02/09 12:47:05;;;;;;;;;85.00;73.00;;;;;;;;5072387;28;8944;-77
2022/02/09 12:49:30;;;;;;;;;78.00;63.50;;;;;;;;5076140;28;8801;-78
2022/02/09 12:51:57;;;;;;;;;84.50;74.75;;;;;;;;5065005;28;8841;-78
2022/02/09 12:54:22;;;;;;;;;102.80;99.20;;;;;;;;5074538;28;8792;-78
2022/02/09 12:56:48;;;;;;;;;91.75;88.50;;;;;;;;5076120;28;8804;-78
2022/02/09 12:59:15;;;;;;;;;78.40;65.20;;;;;;;;5075962;28;8828;-78
2022/02/09 13:01:42;;;;;;;;;66.75;54.75;;;;;;;;5076619;28;8815;-78
2022/02/09 13:04:08;;;;;;;;;73.75;60.25;;;;;;;;5074937;28;8781;-78
2022/02/09 13:06:33;;;;;;;;;73.00;59.25;;;;;;;;5076279;28;8820;-79
2022/02/09 13:08:59;;;;;;;;;64.33;53.33;;;;;;;;5078081;28;8850;-77
2022/02/09 13:11:30;;;;;;;;;68.75;56.25;;;;;;;;5074554;28;8764;-76
2022/02/09 13:14:07;;;;;;;;;72.20;58.40;;;;;;;;5076201;28;8834;-76
2022/02/09 14:11:25;;;;;;;;;67.60;54.60;;;;;;;;5077704;28;8800;-76
2022/02/09 14:14:11;;;;;;;;;62.80;52.60;;;;;;;;5075312;28;8776;-76
2022/02/09 14:51:42;;;;;;;;;56.60;47.60;;;;;;;;5065372;28;8806;-75
2022/02/09 14:57:11;;;;;;;;;63.75;52.50;;;;;;;;5058303;28;8831;-75
2022/02/09 15:02:09;;;;;;;;;76.50;63.00;;;;;;;;5073211;28;8812;-75
2022/02/09 15:07:30;;;;;;;;;73.20;57.80;;;;;;;;5065578;28;8796;-75
2022/02/09 15:10:04;;;;;;;;;65.50;54.00;;;;;;;;5074119;28;8797;-75
2022/02/09 15:12:42;;;;;;;;;74.75;61.50;;;;;;;;5067327;28;8793;-75
2022/02/09 15:15:28;;;;;;;;;77.60;64.40;;;;;;;;5069920;28;8756;-76
2022/02/09 15:23:18;;;;;;;;;80.75;69.25;;;;;;;;5070590;28;8823;-75
2022/02/09 15:25:44;;;;;;;;;69.80;56.80;;;;;;;;5063318;28;8808;-75
2022/02/09 15:28:10;;;;;;;;;83.75;77.25;;;;;;;;5066329;28;8831;-75
2022/02/09 15:30:45;;;;;;;;;73.25;58.50;;;;;;;;5064749;28;8812;-76
2022/02/09 15:33:11;;;;;;;;;64.00;52.50;;;;;;;;5068172;28;8804;-76
2022/02/09 15:35:40;;;;;;;;;71.00;58.50;;;;;;;;5073190;28;8792;-75
2022/02/09 15:40:40;;;;;;;;;80.33;69.33;;;;;;;;5072440;28;8934;-76
2022/02/09 16:24:00;;;;;;;;;61.00;51.20;;;;;;;;5076329;28;8796;-76
2022/02/09 16:44:49;;;;;;;;;81.75;69.25;;;;;;;;5075915;28;8796;-76
2022/02/09 16:47:39;;;;;;;;;77.00;62.50;;;;;;;;5075211;28;9104;-76
2022/02/09 16:50:08;;;;;;;;;80.00;67.00;;;;;;;;5070536;28;8807;-75
2022/02/09 16:52:42;;;;;;;;;87.80;78.60;;;;;;;;5074935;28;9743;-76
2022/02/09 17:08:36;;;;;;;;;102.83;101.83;;;;;;;;5075569;28;8773;-76
2022/02/09 17:19:25;;;;;;;;;184.40;181.80;;;;;;;;5075680;28;8820;-75
2022/02/09 17:21:50;;;;;;;;;185.75;185.50;;;;;;;;5074212;28;11581;-77
2022/02/09 17:24:16;;;;;;;;;217.40;216.60;;;;;;;;5072005;28;8797;-77
2022/02/09 17:26:42;;;;;;;;;222.40;221.60;;;;;;;;5065686;28;11661;-77
2022/02/09 17:29:07;;;;;;;;;218.67;215.17;;;;;;;;5066293;28;8885;-77
2022/02/09 17:34:36;;;;;;;;;256.33;256.00;;;;;;;;5075326;28;11481;-76
2022/02/09 17:58:30;;;;;;;;;98.40;93.80;;;;;;;;5075441;28;8785;-76
2022/02/09 18:00:57;;;;;;;;;121.40;120.80;;;;;;;;5075740;28;8861;-78
2022/02/09 18:03:23;;;;;;;;;96.67;92.00;;;;;;;;5075339;28;8784;-78
2022/02/09 18:05:51;;;;;;;;;103.00;99.00;;;;;;;;5075541;28;9560;-78
2022/02/09 18:11:00;;;;;;;;;90.80;83.40;;;;;;;;5072254;28;8777;-78
2022/02/09 18:37:44;;;;;;;;;81.75;64.50;;;;;;;;5079524;28;8881;-79
2022/02/09 18:42:54;;;;;;;;;91.00;78.25;;;;;;;;5073960;28;8773;-79
2022/02/09 18:48:03;;;;;;;;;86.00;70.00;;;;;;;;5074571;28;8874;-79
2022/02/09 19:01:31;;;;;;;;;104.33;104.00;;;;;;;;5059031;28;8815;-80
2022/02/09 19:03:56;;;;;;;;;124.80;120.60;;;;;;;;5066259;28;11607;-79
2022/02/09 19:06:28;;;;;;;;;119.00;116.75;;;;;;;;5072982;28;8791;-80
2022/02/09 19:16:55;;;;;;;;;115.80;115.00;;;;;;;;5069804;28;8781;-79
2022/02/09 19:30:18;;;;;;;;;95.20;87.40;;;;;;;;5065614;28;8905;-80
2022/02/09 19:48:20;;;;;;;;;89.00;77.75;;;;;;;;5071777;28;8830;-80
2022/02/09 19:56:34;;;;;;;;;94.20;83.80;;;;;;;;5066911;28;8880;-80
2022/02/09 19:59:03;;;;;;;;;96.60;89.80;;;;;;;;5064209;28;8925;-80
2022/02/09 20:01:35;;;;;;;;;92.80;81.80;;;;;;;;5075184;28;8923;-80
2022/02/09 20:04:00;;;;;;;;;91.00;75.75;;;;;;;;5070389;28;8985;-80
2022/02/09 20:06:26;;;;;;;;;92.50;81.00;;;;;;;;5069782;28;9647;-80
2022/02/09 20:08:51;;;;;;;;;96.00;87.67;;;;;;;;5075343;28;8852;-80
2022/02/09 20:11:17;;;;;;;;;100.75;91.25;;;;;;;;5074278;28;10699;-80
2022/02/09 20:13:44;;;;;;;;;92.60;81.60;;;;;;;;5077265;28;8812;-80
2022/02/09 20:16:09;;;;;;;;;93.25;83.25;;;;;;;;5070336;28;8831;-80
2022/02/09 20:18:34;;;;;;;;;98.00;89.25;;;;;;;;5067434;28;8864;-80
2022/02/09 20:21:01;;;;;;;;;96.75;85.00;;;;;;;;5074587;28;8815;-80
2022/02/09 20:23:29;;;;;;;;;94.75;83.50;;;;;;;;5070948;28;8789;-80
2022/02/09 20:25:55;;;;;;;;;103.50;95.50;;;;;;;;5074773;28;8797;-80
2022/02/09 20:28:22;;;;;;;;;97.25;85.75;;;;;;;;5073420;28;8890;-79
2022/02/09 20:30:55;;;;;;;;;95.75;85.25;;;;;;;;5068858;28;9069;-79
2022/02/09 20:33:26;;;;;;;;;115.00;109.33;;;;;;;;5075696;28;8784;-79
2022/02/09 20:35:52;;;;;;;;;101.50;99.75;;;;;;;;5075610;28;11627;-79
2022/02/09 20:38:23;;;;;;;;;101.00;95.60;;;;;;;;5076855;28;8840;-79
2022/02/09 20:40:52;;;;;;;;;95.50;83.00;;;;;;;;5070814;28;8777;-79
2022/02/09 20:43:21;;;;;;;;;94.00;84.00;;;;;;;;5071402;28;8889;-79
2022/02/09 20:45:50;;;;;;;;;96.60;86.40;;;;;;;;5075960;28;8757;-79
2022/02/09 20:48:16;;;;;;;;;92.80;78.60;;;;;;;;5075369;28;8941;-80
2022/02/09 20:50:43;;;;;;;;;106.75;103.25;;;;;;;;5073270;28;8996;-79
2022/02/09 20:53:09;;;;;;;;;92.60;79.60;;;;;;;;5075818;28;8797;-79
2022/02/09 20:55:34;;;;;;;;;97.75;88.00;;;;;;;;5071658;28;8847;-78
2022/02/09 20:57:59;;;;;;;;;106.75;99.25;;;;;;;;5074647;28;11603;-79
2022/02/09 21:03:06;;;;;;;;;100.60;91.40;;;;;;;;5072100;28;11151;-78
2022/02/09 21:05:58;;;;;;;;;107.00;102.75;;;;;;;;5069437;28;9657;-78
2022/02/09 21:24:11;;;;;;;;;93.40;76.80;;;;;;;;5075157;28;8919;-78
2022/02/09 21:26:54;;;;;;;;;103.20;96.20;;;;;;;;5075660;28;8796;-79
2022/02/09 21:53:38;;;;;;;;;99.40;91.60;;;;;;;;5068570;28;8781;-78
2022/02/09 21:59:02;;;;;;;;;105.40;99.40;;;;;;;;5074514;28;8804;-77
2022/02/09 22:27:58;;;;;;;;;105.00;98.25;;;;;;;;5074866;28;8785;-77
2022/02/09 22:49:32;;;;;;;;;133.40;123.00;;;;;;;;5062379;28;9714;-77
2022/02/09 22:54:44;;;;;;;;;129.00;122.80;;;;;;;;5074331;28;8781;-77
2022/02/09 22:57:10;;;;;;;;;139.75;134.25;;;;;;;;5072242;28;8873;-77
2022/02/09 22:59:47;;;;;;;;;128.25;125.00;;;;;;;;5073562;28;8961;-77
2022/02/09 23:02:27;;;;;;;;;108.40;104.20;;;;;;;;5072010;28;8760;-77
2022/02/09 23:05:15;;;;;;;;;143.83;139.50;;;;;;;;5069559;28;11675;-77
2022/02/09 23:08:06;;;;;;;;;138.20;134.80;;;;;;;;5074373;28;8832;-77
2022/02/09 23:10:57;;;;;;;;;132.50;125.25;;;;;;;;5067465;28;8789;-77
2022/02/09 23:13:23;;;;;;;;;134.80;130.40;;;;;;;;5069175;28;8897;-77
